Time;durP1;ratioP1;P1;durP2;ratioP2;P2;SDS_P1;SDS_P2;PMS_P1;PMS_P2;Temp;Humidity;BMP_temperature;BMP_pressure;BME280_temperature;BME280_humidity;BME280_pressure;Samples;Min_cycle;Max_cycle;Signal;HPM_P1;HPM_P2
2021/09/30 00:01:08;227703.00;0.76;393.60;0.00;0.00;0.62;;;;;14.30;1.00;;;;;;2280050;60;1046;-87
2021/09/30 00:03:35;235943.00;0.79;407.77;0.00;0.00;0.62;;;;;14.30;1.00;;;;;;2280051;60;1279;-88
2021/09/30 00:06:02;310824.00;1.04;536.53;34838.00;0.12;60.96;;;;;14.30;1.00;;;;;;2280040;60;1038;-87
2021/09/30 00:08:29;259535.00;0.87;448.35;0.00;0.00;0.62;;;;;14.30;1.00;;;;;;2280019;60;944;-88
2021/09/30 00:11:00;146016.00;0.49;252.94;0.00;0.00;0.62;;;;;14.40;1.00;;;;;;2279906;60;1053;-89
2021/09/30 00:13:45;247201.00;0.82;427.14;0.00;0.00;0.62;;;;;14.90;1.00;;;;;;2279997;60;1951;-89
2021/09/30 00:16:33;296733.00;0.99;512.30;0.00;0.00;0.62;;;;;14.70;1.00;;;;;;2280086;60;1079;-88
2021/09/30 00:32:50;244020.00;0.81;421.67;0.00;0.00;0.62;;;;;13.30;1.00;;;;;;2280341;60;1986;-88
2021/09/30 00:35:31;538418.00;1.79;928.00;77641.00;0.26;134.96;;;;;13.30;1.00;;;;;;2280563;60;1137;-88
2021/09/30 00:46:25;311390.00;1.04;537.50;38354.00;0.13;67.04;;;;;13.00;1.00;;;;;;2280738;60;655;-89
2021/09/30 00:49:06;328602.00;1.10;567.08;0.00;0.00;0.62;;;;;12.90;1.00;;;;;;2280620;60;1462;-89
2021/09/30 00:51:40;578078.00;1.93;996.38;34968.00;0.12;61.18;;;;;12.70;1.00;;;;;;2280597;60;2004;-89
2021/09/30 01:59:18;229343.00;0.76;396.42;0.00;0.00;0.62;;;;;14.60;1.00;;;;;;2280494;60;773;-88
2021/09/30 02:29:51;125982064.00;419.94;81010248.00;0.00;0.00;0.62;;;;;13.10;1.00;;;;;;2259551;61;928;-88
2021/09/30 03:00:16;340256.00;1.13;587.11;12749.00;0.04;22.71;;;;;13.00;1.00;;;;;;2271588;61;697;-89
2021/09/30 03:02:50;349622.00;1.17;603.21;0.00;0.00;0.62;;;;;13.40;1.00;;;;;;2271499;61;1728;-88
2021/09/30 03:05:20;322817.00;1.08;557.14;0.00;0.00;0.62;;;;;13.90;1.00;;;;;;2271606;61;1062;-88
2021/09/30 03:07:50;230904.00;0.77;399.10;0.00;0.00;0.62;;;;;14.00;1.00;;;;;;2271571;61;1047;-89
2021/09/30 03:10:19;420210.00;1.40;724.55;0.00;0.00;0.62;;;;;13.90;1.00;;;;;;2271568;61;1298;-88
2021/09/30 03:12:50;178423.00;0.59;308.77;0.00;0.00;0.62;;;;;13.70;1.00;;;;;;2271431;61;1994;-88
2021/09/30 03:15:37;252168.00;0.84;435.68;0.00;0.00;0.62;;;;;13.90;1.00;;;;;;2277099;60;1062;-89
2021/09/30 03:18:24;266540.00;0.89;460.39;0.00;0.00;0.62;;;;;14.30;1.00;;;;;;2280186;60;1177;-88
2021/09/30 03:21:03;287501.00;0.96;496.43;0.00;0.00;0.62;;;;;14.00;1.00;;;;;;2276344;61;952;-89
2021/09/30 03:23:32;278533.00;0.93;481.02;0.00;0.00;0.62;;;;;13.50;1.00;;;;;;2280096;60;1605;-89
2021/09/30 03:26:00;344963.00;1.15;595.20;0.00;0.00;0.62;;;;;13.50;1.00;;;;;;2280132;60;1088;-88
2021/09/30 03:28:28;379313.00;1.26;654.24;8719.00;0.03;15.73;;;;;13.80;1.00;;;;;;2280098;60;1058;-89
2021/09/30 03:30:59;233899.00;0.78;404.26;0.00;0.00;0.62;;;;;13.50;1.00;;;;;;2280059;60;1612;-89
2021/09/30 03:33:26;286961.00;0.96;495.50;0.00;0.00;0.62;;;;;13.80;1.00;;;;;;2280100;60;1977;-88
2021/09/30 03:35:54;365394.00;1.22;630.32;0.00;0.00;0.62;;;;;14.00;1.00;;;;;;2280074;60;998;-89
2021/09/30 03:38:22;232037.00;0.77;401.05;0.00;0.00;0.62;;;;;14.20;1.00;;;;;;2280091;60;1235;-87
2021/09/30 03:40:51;326144.00;1.09;562.86;0.00;0.00;0.62;;;;;14.30;1.00;;;;;;2280132;60;1044;-90
2021/09/30 03:43:19;328587.00;1.10;567.06;0.00;0.00;0.62;;;;;14.20;1.00;;;;;;2280041;60;1285;-89
2021/09/30 03:45:47;268343.00;0.89;463.49;0.00;0.00;0.62;;;;;14.30;1.00;;;;;;2280046;60;1129;-89
2021/09/30 03:48:15;281269.00;0.94;485.72;15223.00;0.05;27.00;;;;;14.40;1.00;;;;;;2280084;61;1090;-89
2021/09/30 03:50:48;230762.00;0.77;398.86;0.00;0.00;0.62;;;;;14.50;1.00;;;;;;2280163;60;1047;-89
2021/09/30 03:53:19;243862.00;0.81;421.39;0.00;0.00;0.62;;;;;14.60;1.00;;;;;;2280007;60;2002;-88
2021/09/30 03:56:01;312947.00;1.04;540.18;8397.00;0.03;15.17;;;;;14.60;1.00;;;;;;2280014;60;1114;-89
2021/09/30 04:01:15;242630.00;0.81;419.27;0.00;0.00;0.62;;;;;14.40;1.00;;;;;;2280079;60;622;-89
2021/09/30 04:03:42;352925.00;1.18;608.89;0.00;0.00;0.62;;;;;14.80;1.00;;;;;;2279535;60;1608;-88
2021/09/30 04:06:09;348132.00;1.16;600.65;0.00;0.00;0.62;;;;;15.20;1.00;;;;;;2279862;60;1178;-89
2021/09/30 04:08:37;426260.00;1.42;734.95;0.00;0.00;0.62;;;;;15.40;1.00;;;;;;2279917;60;1105;-88
2021/09/30 04:11:04;420568.00;1.40;725.17;0.00;0.00;0.62;;;;;15.70;1.00;;;;;;2279941;60;1090;-88
2021/09/30 04:13:32;465814.00;1.55;802.99;0.00;0.00;0.62;;;;;15.70;1.00;;;;;;2279828;60;1980;-88
2021/09/30 04:15:59;687773.00;2.29;1186.04;14488.00;0.05;25.72;;;;;15.60;1.00;;;;;;2279834;60;1156;-88
2021/09/30 04:18:27;735299.00;2.45;1268.51;7293.00;0.02;13.26;;;;;15.60;1.00;;;;;;2279893;60;1102;-89
2021/09/30 04:20:54;564539.00;1.88;973.03;0.00;0.00;0.62;;;;;15.50;1.00;;;;;;2279955;60;1123;-89
2021/09/30 04:23:21;370248.00;1.23;638.66;0.00;0.00;0.62;;;;;15.30;1.00;;;;;;2279954;60;1272;-89
2021/09/30 04:25:48;418253.00;1.39;721.19;0.00;0.00;0.62;;;;;15.50;1.00;;;;;;2279873;60;997;-89
2021/09/30 04:28:15;328954.00;1.10;567.69;0.00;0.00;0.62;;;;;15.50;1.00;;;;;;2279977;61;1026;-89
2021/09/30 04:30:44;541219.00;1.80;932.82;0.00;0.00;0.62;;;;;15.60;1.00;;;;;;2279863;60;1204;-88
2021/09/30 04:33:11;544183.00;1.81;937.93;0.00;0.00;0.62;;;;;16.00;1.00;;;;;;2279836;60;1919;-89
2021/09/30 04:35:37;654160.00;2.18;1127.83;0.00;0.00;0.62;;;;;16.50;1.00;;;;;;2272635;60;1121;-89
2021/09/30 04:38:08;762637.00;2.54;1316.04;55239.00;0.18;96.25;;;;;16.50;1.00;;;;;;2279825;60;1150;-89
2021/09/30 04:40:35;727707.00;2.43;1255.32;49961.00;0.17;87.12;;;;;16.00;1.00;;;;;;2279913;61;1094;-89
2021/09/30 04:43:02;679251.00;2.26;1171.28;3757.00;0.01;7.13;;;;;15.80;1.00;;;;;;2279767;60;1413;-89
2021/09/30 04:45:29;117762032.00;392.54;66152768.00;11724.00;0.04;20.94;;;;;15.50;1.00;;;;;;2278714;60;1604;-88
2021/09/30 04:47:58;1276196.00;4.25;2228.61;108558.00;0.36;188.34;;;;;15.20;1.00;;;;;;2279564;60;1069;-87
2021/09/30 04:50:25;956691.00;3.19;1655.91;14585.00;0.05;25.89;;;;;15.10;1.00;;;;;;2279800;60;1078;-89
2021/09/30 04:52:53;928410.00;3.09;1606.07;35588.00;0.12;62.25;;;;;15.30;1.00;;;;;;2279719;60;1919;-88
2021/09/30 04:55:20;1188172.00;3.96;2068.85;22806.00;0.08;40.13;;;;;15.50;1.00;;;;;;2279511;60;1558;-88
2021/09/30 04:57:47;821773.00;2.74;1419.12;23137.00;0.08;40.70;;;;;15.60;1.00;;;;;;2279816;60;924;-88
2021/09/30 05:00:15;825140.00;2.75;1425.00;2233.00;0.01;4.49;;;;;15.40;1.00;;;;;;2279534;60;1094;-88
2021/09/30 05:02:42;1002512.00;3.34;1736.92;33219.00;0.11;58.15;;;;;15.20;1.00;;;;;;2279370;60;1269;-88
2021/09/30 05:05:11;957694.00;3.19;1657.68;5821.00;0.02;10.71;;;;;15.30;1.00;;;;;;2279520;60;1063;-88
2021/09/30 05:07:39;911998.00;3.04;1577.20;18353.00;0.06;32.42;;;;;15.00;1.00;;;;;;2279222;60;1102;-87
2021/09/30 05:10:07;952011.00;3.17;1647.66;45475.00;0.15;79.36;;;;;14.60;1.00;;;;;;2279783;60;1051;-87
2021/09/30 05:12:34;1343538.00;4.48;2352.01;12621.00;0.04;22.49;;;;;14.20;1.00;;;;;;2279666;60;2001;-88
2021/09/30 05:15:01;1607048.00;5.36;2846.22;114889.00;0.38;199.27;;;;;13.80;1.00;;;;;;2279709;60;1047;-88
2021/09/30 05:17:28;1248898.00;4.16;2178.88;22699.00;0.08;39.94;;;;;13.60;1.00;;;;;;2279762;60;922;-88
2021/09/30 05:19:55;1033394.00;3.44;1791.71;15769.00;0.05;27.94;;;;;13.40;1.00;;;;;;2280418;60;1062;-87
2021/09/30 05:22:23;1503401.00;5.01;2649.52;43563.00;0.15;76.05;;;;;13.20;1.00;;;;;;2280455;60;1366;-87
2021/09/30 05:24:50;1154391.00;3.85;2007.97;36391.00;0.12;63.64;;;;;13.40;1.00;;;;;;2280315;60;1105;-88
2021/09/30 05:27:17;983335.00;3.28;1702.98;0.00;0.00;0.62;;;;;13.50;1.00;;;;;;2280375;60;1020;-87
2021/09/30 05:29:44;977152.00;3.26;1692.05;15098.00;0.05;26.78;;;;;13.70;1.00;;;;;;2280295;60;974;-87
2021/09/30 05:32:10;946378.00;3.15;1637.72;0.00;0.00;0.62;;;;;13.90;1.00;;;;;;2280433;60;928;-88
2021/09/30 05:34:37;974218.00;3.25;1686.86;20333.00;0.07;35.85;;;;;13.60;1.00;;;;;;2280352;60;2007;-88
2021/09/30 05:37:15;1096944.00;3.66;1904.96;45180.00;0.15;78.85;;;;;13.20;1.00;;;;;;2280404;60;856;-87
2021/09/30 05:39:45;823817.00;2.75;1422.69;0.00;0.00;0.62;;;;;12.90;1.00;;;;;;2280320;60;1554;-87
2021/09/30 05:42:13;637148.00;2.12;1098.41;0.00;0.00;0.62;;;;;12.70;1.00;;;;;;2280278;60;1219;-88
2021/09/30 05:44:40;683805.00;2.28;1179.17;0.00;0.00;0.62;;;;;13.00;1.00;;;;;;2280315;60;1052;-88
2021/09/30 05:47:07;616939.00;2.06;1063.48;0.00;0.00;0.62;;;;;13.20;1.00;;;;;;2280305;60;960;-88
2021/09/30 05:49:34;528087.00;1.76;910.20;0.00;0.00;0.62;;;;;13.80;1.00;;;;;;2280293;60;992;-88
2021/09/30 05:52:01;628950.00;2.10;1084.23;0.00;0.00;0.62;;;;;14.50;1.00;;;;;;2280263;60;916;-88
2021/09/30 05:54:28;704021.00;2.35;1214.21;0.00;0.00;0.62;;;;;15.10;1.00;;;;;;2280207;60;2018;-88
2021/09/30 05:56:56;1003871.00;3.35;1739.33;29277.00;0.10;51.33;;;;;14.50;1.00;;;;;;2280268;60;1146;-88
2021/09/30 05:59:23;645896.00;2.15;1113.54;0.00;0.00;0.62;;;;;14.80;1.00;;;;;;2280269;60;933;-87
2021/09/30 06:12:47;850686.00;2.84;1469.67;82479.00;0.27;143.32;;;;;16.80;1.00;;;;;;2278875;60;2015;-88
2021/09/30 06:15:16;820759.00;2.74;1417.35;0.00;0.00;0.62;;;;;16.70;1.00;;;;;;2280163;60;1116;-88
2021/09/30 06:17:45;1043305.00;3.48;1809.32;0.00;0.00;0.62;;;;;16.90;1.00;;;;;;2280134;60;1143;-88
2021/09/30 06:20:13;567693.00;1.89;978.47;0.00;0.00;0.62;;;;;17.70;1.00;;;;;;2280105;60;1564;-89
2021/09/30 06:22:40;653365.00;2.18;1126.46;4147.00;0.01;7.81;;;;;18.70;1.00;;;;;;2280111;60;1419;-87
2021/09/30 06:25:07;543539.00;1.81;936.82;0.00;0.00;0.62;;;;;19.40;1.00;;;;;;2280220;60;1062;-87
2021/09/30 06:27:35;823145.00;2.74;1421.52;0.00;0.00;0.62;;;;;20.30;1.00;;;;;;2280092;60;1533;-88
2021/09/30 06:30:04;1006203.00;3.35;1743.46;48723.00;0.16;84.98;;;;;21.20;1.00;;;;;;2280100;60;1775;-88
2021/09/30 06:32:31;997057.00;3.32;1727.26;108262.00;0.36;187.83;;;;;21.80;1.00;;;;;;2280141;61;1610;-89
2021/09/30 06:34:58;711453.00;2.37;1227.10;70154.00;0.23;122.03;;;;;21.80;1.00;;;;;;2280069;60;2018;-89
2021/09/30 06:37:26;773444.00;2.58;1334.85;82944.00;0.28;144.12;;;;;21.90;1.00;;;;;;2280165;60;1068;-88
2021/09/30 06:39:53;684124.00;2.28;1179.72;61223.00;0.20;106.59;;;;;22.00;1.00;;;;;;2280143;60;1073;-89
2021/09/30 06:42:20;1070655.00;3.57;1858.02;174873.00;0.58;302.66;;;;;22.10;1.00;;;;;;2280108;60;1568;-88
2021/09/30 06:44:47;1228852.00;4.10;2142.47;119553.00;0.40;207.31;;;;;21.60;1.00;;;;;;2280105;60;1090;-88
2021/09/30 06:47:15;925183.00;3.08;1600.39;111132.00;0.37;192.78;;;;;21.50;1.00;;;;;;2279998;60;1090;-88
2021/09/30 06:49:42;651633.00;2.17;1123.46;85641.00;0.29;148.78;;;;;21.20;1.00;;;;;;2280086;60;1139;-87
2021/09/30 06:52:09;963209.00;3.21;1667.42;91746.00;0.31;159.32;;;;;21.20;1.00;;;;;;2280239;60;1095;-87
2021/09/30 06:54:36;1332582.00;4.44;2331.86;147812.00;0.49;256.04;;;;;21.00;1.00;;;;;;2280213;60;1915;-88
2021/09/30 06:57:04;1117597.00;3.73;1941.92;128253.00;0.43;222.32;;;;;20.80;1.00;;;;;;2280304;60;1130;-88
2021/09/30 06:59:34;950958.00;3.17;1645.80;103820.00;0.35;180.17;;;;;20.30;1.00;;;;;;2280217;60;1690;-87
2021/09/30 07:02:04;1276337.00;4.25;2228.86;160959.00;0.54;278.69;;;;;19.10;1.00;;;;;;2280260;60;1126;-87
2021/09/30 07:04:33;918736.00;3.06;1589.05;136056.00;0.45;235.77;;;;;19.00;1.00;;;;;;2280127;60;1382;-88
2021/09/30 07:07:00;940805.00;3.14;1627.90;99258.00;0.33;172.29;;;;;18.90;1.00;;;;;;2280086;60;1003;-87
2021/09/30 07:09:27;912235.00;3.04;1577.62;100886.00;0.34;175.10;;;;;18.80;1.00;;;;;;2280149;60;1071;-87
2021/09/30 07:11:54;898203.00;2.99;1552.96;94555.00;0.32;164.17;;;;;18.80;1.00;;;;;;2280137;60;1695;-87
2021/09/30 07:14:21;864961.00;2.88;1494.66;134797.00;0.45;233.60;;;;;19.10;1.00;;;;;;2280123;60;1911;-88
2021/09/30 07:16:48;1006433.00;3.35;1743.87;93798.00;0.31;162.87;;;;;18.80;1.00;;;;;;2280166;60;1047;-87
2021/09/30 07:19:15;952751.00;3.18;1648.96;129285.00;0.43;224.10;;;;;19.20;1.00;;;;;;2280108;60;1022;-87
2021/09/30 07:21:43;807826.00;2.69;1394.78;133852.00;0.45;231.97;;;;;19.70;1.00;;;;;;2280152;60;1113;-87
2021/09/30 07:24:10;119326856.00;397.76;68827544.00;95025.00;0.32;164.98;;;;;20.00;1.00;;;;;;2280030;60;1537;-88
2021/09/30 07:26:37;811417.00;2.70;1401.04;87806.00;0.29;152.52;;;;;20.50;1.00;;;;;;2280075;60;1056;-88
2021/09/30 07:29:04;594626.00;1.98;1024.94;62689.00;0.21;109.13;;;;;21.00;1.00;;;;;;2280110;60;1067;-88
2021/09/30 07:31:31;604327.00;2.01;1041.69;87690.00;0.29;152.32;;;;;20.80;1.00;;;;;;2280132;60;996;-87
2021/09/30 07:33:58;377259.00;1.26;650.71;64849.00;0.22;112.86;;;;;21.30;1.00;;;;;;2279977;60;1913;-88
2021/09/30 07:36:25;336271.00;1.12;580.26;70973.00;0.24;123.44;;;;;21.80;1.00;;;;;;2280087;60;896;-87
2021/09/30 07:38:53;355079.00;1.18;612.59;81490.00;0.27;141.61;;;;;21.60;1.00;;;;;;2280131;60;1078;-87
2021/09/30 07:41:20;651143.00;2.17;1122.61;169287.00;0.56;293.04;;;;;21.60;1.00;;;;;;2279938;60;1096;-87
2021/09/30 07:43:47;528145.00;1.76;910.30;73391.00;0.24;127.62;;;;;21.20;1.00;;;;;;2280055;60;1372;-87
2021/09/30 07:46:14;358431.00;1.19;618.35;72090.00;0.24;125.37;;;;;21.10;1.00;;;;;;2280075;60;1078;-87
2021/09/30 07:48:41;510941.00;1.70;880.66;74766.00;0.25;130.00;;;;;21.80;1.00;;;;;;2280009;60;1060;-87
2021/09/30 07:51:08;314538.00;1.05;542.91;80967.00;0.27;140.71;;;;;21.80;1.00;;;;;;2280108;60;945;-87
2021/09/30 07:53:35;392178.00;1.31;676.36;57355.00;0.19;99.90;;;;;21.60;1.00;;;;;;2279977;60;2021;-87
2021/09/30 07:56:03;416604.00;1.39;718.35;75307.00;0.25;130.93;;;;;21.60;1.00;;;;;;2280012;60;1118;-87
2021/09/30 07:58:31;763839.00;2.55;1318.13;171572.00;0.57;296.97;;;;;21.70;1.00;;;;;;2280057;60;931;-88
2021/09/30 08:00:59;515317.00;1.72;888.20;72192.00;0.24;125.55;;;;;22.00;1.00;;;;;;2280050;60;1066;-87
2021/09/30 08:03:28;553717.00;1.85;954.37;99435.00;0.33;172.60;;;;;22.60;1.00;;;;;;2280036;60;1289;-87
2021/09/30 08:05:55;394819.00;1.32;680.90;78773.00;0.26;136.92;;;;;22.40;1.00;;;;;;2280027;60;1125;-87
2021/09/30 08:08:23;303446.00;1.01;523.84;75976.00;0.25;132.09;;;;;21.80;1.00;;;;;;2280116;60;919;-87
2021/09/30 08:10:51;286639.00;0.96;494.95;72951.00;0.24;126.86;;;;;22.10;1.00;;;;;;2280049;60;1006;-87
2021/09/30 08:13:19;402862.00;1.34;694.73;72558.00;0.24;126.18;;;;;22.20;1.00;;;;;;2279995;60;2006;-87
2021/09/30 08:15:46;262751.00;0.88;453.88;56000.00;0.19;97.56;;;;;21.80;1.00;;;;;;2280055;60;1240;-87
2021/09/30 08:18:13;311508.00;1.04;537.70;82737.00;0.28;143.76;;;;;21.40;1.00;;;;;;2279887;60;1097;-88
2021/09/30 08:20:42;335964.00;1.12;579.74;72054.00;0.24;125.31;;;;;21.60;1.00;;;;;;2279921;60;1133;-88
2021/09/30 08:23:10;418157.00;1.39;721.02;74775.00;0.25;130.01;;;;;21.30;1.00;;;;;;2279925;60;1394;-88
2021/09/30 08:25:37;489706.00;1.63;844.10;92319.00;0.31;160.31;;;;;21.40;1.00;;;;;;2279971;60;1059;-87
2021/09/30 08:28:04;350394.00;1.17;604.54;69116.00;0.23;120.23;;;;;21.30;1.00;;;;;;2279953;60;1117;-87
2021/09/30 08:30:33;474410.00;1.58;817.78;72263.00;0.24;125.67;;;;;20.60;1.00;;;;;;2279940;60;1576;-88
2021/09/30 08:33:00;397174.00;1.32;684.95;84887.00;0.28;147.48;;;;;20.00;1.00;;;;;;2279845;60;1500;-87
2021/09/30 08:35:28;469155.00;1.56;808.74;124080.00;0.41;215.12;;;;;19.80;1.00;;;;;;2279973;60;2007;-88
2021/09/30 08:37:55;319139.00;1.06;550.82;79977.00;0.27;139.00;;;;;19.60;1.00;;;;;;2280090;60;939;-87
2021/09/30 08:40:22;480863.00;1.60;828.88;78014.00;0.26;135.61;;;;;19.40;1.00;;;;;;2280056;60;1141;-87
2021/09/30 08:42:49;552968.00;1.84;953.08;95399.00;0.32;165.63;;;;;19.50;1.00;;;;;;2279978;60;1412;-87
2021/09/30 08:45:20;136451.00;0.45;236.45;0.00;0.00;0.62;;;;;20.10;1.00;;;;;;2279869;60;1040;-87
2021/09/30 08:47:56;339495.00;1.13;585.81;75279.00;0.25;130.88;;;;;20.20;1.00;;;;;;2280026;60;1130;-87
2021/09/30 08:50:23;431097.00;1.44;743.27;76244.00;0.25;132.55;;;;;20.30;1.00;;;;;;2279866;60;1776;-88
2021/09/30 08:52:50;421635.00;1.41;727.00;76327.00;0.25;132.69;;;;;19.90;1.00;;;;;;2280060;60;1545;-88
2021/09/30 08:55:17;537145.00;1.79;925.80;153347.00;0.51;265.58;;;;;19.80;1.00;;;;;;2280628;60;1992;-88
2021/09/30 08:57:46;506026.00;1.69;872.20;81267.00;0.27;141.23;;;;;19.90;1.00;;;;;;2280677;60;916;-88
2021/09/30 09:00:14;647182.00;2.16;1115.76;67181.00;0.22;116.89;;;;;20.00;1.00;;;;;;2280743;60;1081;-87
2021/09/30 09:02:46;589602.00;1.97;1016.27;100493.00;0.33;174.42;;;;;20.70;1.00;;;;;;2280611;60;1362;-88
2021/09/30 09:05:15;464055.00;1.55;799.96;148782.00;0.50;257.71;;;;;20.60;1.00;;;;;;2280637;60;923;-87
2021/09/30 09:07:54;119394576.00;397.98;68944904.00;95957.00;0.32;166.59;;;;;20.70;1.00;;;;;;2280496;60;996;-88
2021/09/30 09:10:23;329951.00;1.10;569.40;78586.00;0.26;136.59;;;;;20.10;1.00;;;;;;2280601;60;1090;-88
2021/09/30 09:13:02;501547.00;1.67;864.49;98693.00;0.33;171.32;;;;;19.90;1.00;;;;;;2280541;60;1600;-88
2021/09/30 09:15:37;769126.00;2.56;1327.33;65979.00;0.22;114.81;;;;;19.60;1.00;;;;;;2280581;60;1997;-88
2021/09/30 09:18:16;878503.00;2.93;1518.40;20776.00;0.07;36.61;;;;;19.80;1.00;;;;;;2280574;60;1536;-88
2021/09/30 09:20:48;776126.00;2.59;1339.52;0.00;0.00;0.62;;;;;20.20;1.00;;;;;;2280564;60;1138;-86
2021/09/30 09:23:15;445360.00;1.48;767.80;0.00;0.00;0.62;;;;;20.30;1.00;;;;;;2280503;60;1478;-88
2021/09/30 09:25:42;596223.00;1.99;1027.70;0.00;0.00;0.62;;;;;20.20;1.00;;;;;;2280532;60;1145;-87
2021/09/30 09:28:09;633553.00;2.11;1092.19;63361.00;0.21;110.29;;;;;20.20;1.00;;;;;;2280543;60;1662;-88
2021/09/30 09:30:42;793795.00;2.65;1370.30;86614.00;0.29;150.46;;;;;20.60;1.00;;;;;;2280592;60;1090;-87
2021/09/30 09:33:16;940138.00;3.13;1626.73;140617.00;0.47;243.63;;;;;21.00;1.00;;;;;;2280516;60;1467;-87
2021/09/30 09:36:04;332735.00;1.11;574.19;0.00;0.00;0.62;;;;;20.80;1.00;;;;;;2280533;60;1985;-87
2021/09/30 09:38:45;490765.00;1.64;845.93;42796.00;0.14;74.73;;;;;20.50;1.00;;;;;;2280623;60;1082;-88
2021/09/30 09:41:19;271073.00;0.90;468.19;0.00;0.00;0.62;;;;;20.30;1.00;;;;;;2280378;60;1648;-87
2021/09/30 09:43:47;376677.00;1.26;649.71;0.00;0.00;0.62;;;;;20.50;1.00;;;;;;2280425;60;1460;-87
2021/09/30 09:46:18;442449.00;1.47;762.79;0.00;0.00;0.62;;;;;20.50;1.00;;;;;;2280359;60;1063;-88
2021/09/30 09:48:59;437800.00;1.46;754.80;0.00;0.00;0.62;;;;;20.70;1.00;;;;;;2280460;60;1120;-88
2021/09/30 09:51:34;106103.00;0.35;184.11;0.00;0.00;0.62;;;;;20.80;1.00;;;;;;2280451;60;970;-88
2021/09/30 09:54:02;294899.00;0.98;509.15;0.00;0.00;0.62;;;;;20.40;1.00;;;;;;2280395;60;1923;-87
2021/09/30 09:56:30;280659.00;0.94;484.67;0.00;0.00;0.62;;;;;20.20;1.00;;;;;;2280447;60;1105;-88
2021/09/30 09:58:58;181370.00;0.60;313.85;0.00;0.00;0.62;;;;;20.30;1.00;;;;;;2280403;60;1133;-88
2021/09/30 10:01:28;171083.00;0.57;296.13;0.00;0.00;0.62;;;;;20.40;1.00;;;;;;2280397;60;1689;-87
2021/09/30 10:03:58;157763.00;0.53;273.18;0.00;0.00;0.62;;;;;20.60;1.00;;;;;;2280292;60;1279;-88
2021/09/30 10:06:29;121360128.00;404.53;72409560.00;10825.00;0.04;19.38;;;;;20.60;1.00;;;;;;2280396;60;1106;-88
2021/09/30 10:08:56;600019.00;2.00;1034.25;33805.00;0.11;59.17;;;;;20.80;1.00;;;;;;2280425;60;968;-88
2021/09/30 10:11:23;448606.00;1.50;773.38;30127.00;0.10;52.80;;;;;21.20;1.00;;;;;;2280411;60;1694;-88
2021/09/30 10:13:50;738825.00;2.46;1274.63;65311.00;0.22;113.66;;;;;20.90;1.00;;;;;;2280430;60;1300;-87
2021/09/30 10:16:24;685735.00;2.29;1182.51;52285.00;0.17;91.14;;;;;20.50;1.00;;;;;;2280423;60;1012;-88
2021/09/30 10:18:52;518171.00;1.73;893.11;591.00;0.00;1.64;;;;;20.40;1.00;;;;;;2280413;60;1020;-88
2021/09/30 10:21:20;401335.00;1.34;692.10;43866.00;0.15;76.58;;;;;20.30;1.00;;;;;;2280435;60;986;-88
2021/09/30 10:23:54;895739.00;2.99;1548.64;54181.00;0.18;94.42;;;;;20.40;1.00;;;;;;2280426;60;1348;-88
2021/09/30 10:26:25;204158.00;0.68;353.08;0.00;0.00;0.62;;;;;20.40;1.00;;;;;;2280384;60;1683;-88
2021/09/30 10:28:52;258903.00;0.86;447.26;0.00;0.00;0.62;;;;;20.30;1.00;;;;;;2280407;60;1036;-88
2021/09/30 10:31:32;370454.00;1.23;639.02;23873.00;0.08;41.98;;;;;20.20;1.00;;;;;;2280368;60;972;-87
2021/09/30 10:34:02;476338.00;1.59;821.10;28956.00;0.10;50.78;;;;;20.10;1.00;;;;;;2280274;60;1931;-87
2021/09/30 10:36:32;305857.00;1.02;527.99;0.00;0.00;0.62;;;;;20.80;1.00;;;;;;2280403;60;1054;-86
2021/09/30 10:39:30;647671.00;2.16;1116.61;0.00;0.00;0.62;;;;;20.80;1.00;;;;;;2280315;60;1054;-87
2021/09/30 10:42:00;483714.00;1.61;833.79;36275.00;0.12;63.44;;;;;20.60;1.00;;;;;;2273391;60;1742;-87
2021/09/30 10:44:33;273016.00;0.91;471.53;0.00;0.00;0.62;;;;;20.80;1.00;;;;;;2280341;60;1394;-88
2021/09/30 10:47:02;199987.00;0.67;345.90;0.00;0.00;0.62;;;;;21.00;1.00;;;;;;2280310;60;1684;-87
2021/09/30 10:49:56;102392.00;0.34;177.70;0.00;0.00;0.62;;;;;21.40;1.00;;;;;;2280098;60;1074;-87
2021/09/30 10:52:29;164774.00;0.55;285.26;0.00;0.00;0.62;;;;;21.70;1.00;;;;;;2280281;60;1378;-87
2021/09/30 10:55:32;296428.00;0.99;511.78;0.00;0.00;0.62;;;;;21.80;1.00;;;;;;2280381;60;2013;-88
2021/09/30 10:58:03;88062.00;0.29;152.96;0.00;0.00;0.62;;;;;21.80;1.00;;;;;;2280358;60;1130;-87
2021/09/30 11:00:55;118564.00;0.40;205.61;0.00;0.00;0.62;;;;;21.30;1.00;;;;;;2280426;60;1113;-88
2021/09/30 11:03:23;72511.00;0.24;126.10;0.00;0.00;0.62;;;;;21.50;1.00;;;;;;2280267;60;1365;-87
2021/09/30 11:06:21;127718.00;0.43;221.39;0.00;0.00;0.62;;;;;20.80;1.00;;;;;;2280286;60;1051;-88
2021/09/30 11:09:09;273819.00;0.91;472.91;0.00;0.00;0.62;;;;;20.40;1.00;;;;;;2275726;61;1106;-88
2021/09/30 11:11:37;393610.00;1.31;678.82;0.00;0.00;0.62;;;;;20.40;1.00;;;;;;2279804;60;1676;-87
2021/09/30 11:14:25;576133.00;1.92;993.03;20851.00;0.07;36.74;;;;;19.80;1.00;;;;;;2280259;60;1344;-87
2021/09/30 11:16:55;260445.00;0.87;449.91;10166.00;0.03;18.24;;;;;20.00;1.00;;;;;;2280246;60;1091;-87
2021/09/30 11:19:38;313258.00;1.04;540.71;20776.00;0.07;36.61;;;;;20.10;1.00;;;;;;2280334;60;1076;-87
2021/09/30 11:22:06;213600.00;0.71;369.33;0.00;0.00;0.62;;;;;20.30;1.00;;;;;;2280205;60;1177;-87
2021/09/30 11:24:49;307473.00;1.02;530.77;0.00;0.00;0.62;;;;;20.30;1.00;;;;;;2280211;60;1321;-87
2021/09/30 11:27:30;370899.00;1.24;639.78;22400.00;0.07;39.43;;;;;19.70;1.00;;;;;;2280210;60;1015;-88
2021/09/30 11:30:19;219564.00;0.73;379.59;0.00;0.00;0.62;;;;;20.20;1.00;;;;;;2280297;60;1111;-87
2021/09/30 11:32:48;407158.00;1.36;702.11;0.00;0.00;0.62;;;;;20.40;1.00;;;;;;2280201;60;1349;-87
2021/09/30 11:35:15;621104.00;2.07;1070.67;0.00;0.00;0.62;;;;;20.60;1.00;;;;;;2280145;60;1990;-87
2021/09/30 11:37:45;687964.00;2.29;1186.37;0.00;0.00;0.62;;;;;20.50;1.00;;;;;;2280191;60;1004;-86
2021/09/30 11:40:19;625674.00;2.09;1078.57;12964.00;0.04;23.08;;;;;20.50;1.00;;;;;;2280137;60;921;-87
2021/09/30 11:42:52;686849.00;2.29;1184.44;17089.00;0.06;30.23;;;;;20.40;1.00;;;;;;2280197;60;1328;-87
2021/09/30 11:45:22;558741.00;1.86;963.03;0.00;0.00;0.62;;;;;20.70;1.00;;;;;;2280343;60;1143;-88
2021/09/30 11:47:51;439822.00;1.47;758.28;10387.00;0.03;18.62;;;;;20.40;1.00;;;;;;2280220;60;1061;-87
2021/09/30 11:50:21;128668.00;0.43;223.03;0.00;0.00;0.62;;;;;20.70;1.00;;;;;;2280307;60;1070;-88
2021/09/30 11:53:02;243977.00;0.81;421.59;0.00;0.00;0.62;;;;;20.60;1.00;;;;;;2280150;60;1483;-87
2021/09/30 11:55:29;306887.00;1.02;529.76;0.00;0.00;0.62;;;;;20.10;1.00;;;;;;2279298;61;1925;-88
2021/09/30 11:58:00;1295503.00;4.32;2263.88;208063.00;0.69;359.80;;;;;19.90;1.00;;;;;;2279512;61;1075;-87
2021/09/30 12:00:28;712914.00;2.38;1229.64;44584.00;0.15;77.82;;;;;19.80;1.00;;;;;;2279792;60;1161;-87
2021/09/30 12:03:00;650179.00;2.17;1120.95;0.00;0.00;0.62;;;;;19.70;1.00;;;;;;2279639;61;1348;-87
2021/09/30 12:05:30;688003.00;2.29;1186.44;0.00;0.00;0.62;;;;;19.70;1.00;;;;;;2279526;60;1139;-88
2021/09/30 12:07:59;496466.00;1.65;855.74;0.00;0.00;0.62;;;;;19.60;1.00;;;;;;2279497;61;1130;-88
2021/09/30 12:10:27;548597.00;1.83;945.54;0.00;0.00;0.62;;;;;20.10;1.00;;;;;;2279670;60;1134;-87
2021/09/30 12:12:54;777482.00;2.59;1341.88;8399.00;0.03;15.18;;;;;20.90;1.00;;;;;;2279710;60;1521;-88
2021/09/30 12:15:23;979165.00;3.26;1695.61;0.00;0.00;0.62;;;;;21.00;1.00;;;;;;2280195;61;1994;-86
2021/09/30 12:17:50;477122.00;1.59;822.44;31132.00;0.10;54.54;;;;;20.70;1.00;;;;;;2279986;60;1153;-86
2021/09/30 12:20:18;525013.00;1.75;904.90;0.00;0.00;0.62;;;;;20.70;1.00;;;;;;2279806;60;983;-88
2021/09/30 12:22:49;918070.00;3.06;1587.88;95651.00;0.32;166.06;;;;;20.50;1.00;;;;;;2280174;60;1332;-87
2021/09/30 12:25:18;978802.00;3.26;1694.96;160021.00;0.53;277.08;;;;;20.30;1.00;;;;;;2279959;61;1141;-87
2021/09/30 12:27:48;955973.00;3.19;1654.65;85460.00;0.28;148.47;;;;;20.30;1.00;;;;;;2280490;60;1143;-87